createdAt,value
2022-11-05T00:00:15.539Z,7.31
2022-11-05T00:02:05.900Z,7.30
2022-11-05T00:03:56.168Z,7.32
2022-11-05T00:05:46.595Z,7.27
2022-11-05T00:07:37.412Z,7.31
2022-11-05T00:09:27.836Z,7.30
2022-11-05T00:11:02.346Z,7.32
2022-11-05T00:12:52.790Z,7.32
2022-11-05T00:14:43.344Z,7.35
2022-11-05T00:16:34.993Z,7.35
2022-11-05T00:18:06.737Z,7.37
2022-11-05T00:19:38.496Z,7.38
2022-11-05T00:21:30.122Z,7.36
2022-11-05T00:23:20.217Z,7.41
2022-11-05T00:25:10.619Z,7.41
2022-11-05T00:26:42.389Z,7.38
2022-11-05T00:28:14.111Z,7.38
2022-11-05T00:29:45.867Z,7.40
2022-11-05T00:31:18.960Z,7.38
2022-11-05T00:32:51.278Z,7.33
2022-11-05T00:34:23.051Z,7.34
2022-11-05T00:35:54.731Z,7.33
2022-11-05T00:37:27.240Z,7.38
2022-11-05T00:38:59.000Z,7.32
2022-11-05T00:40:30.744Z,7.27
2022-11-05T00:42:21.020Z,7.26
2022-11-05T00:44:11.516Z,7.27
2022-11-05T00:45:43.364Z,7.35
2022-11-05T00:47:34.871Z,7.31
2022-11-05T00:49:25.151Z,7.27
2022-11-05T00:50:56.846Z,7.22
2022-11-05T00:52:47.200Z,7.25
2022-11-05T00:54:18.934Z,7.29
2022-11-05T00:55:50.814Z,7.29
2022-11-05T00:57:22.549Z,7.35
2022-11-05T00:58:56.483Z,7.28
2022-11-05T01:00:29.364Z,7.25
2022-11-05T01:02:01.216Z,7.19
2022-11-05T01:03:35.621Z,7.17
2022-11-05T01:05:08.040Z,7.18
2022-11-05T01:06:39.759Z,7.19
2022-11-05T01:08:11.637Z,7.21
2022-11-05T01:09:43.316Z,7.14
2022-11-05T01:11:34.635Z,7.15
2022-11-05T01:13:11.666Z,7.10
2022-11-05T01:14:44.592Z,7.12
2022-11-05T01:16:16.352Z,7.14
2022-11-05T01:17:48.112Z,7.14
2022-11-05T01:19:21.192Z,7.10
2022-11-05T01:20:53.095Z,7.08
2022-11-05T01:22:24.809Z,7.16
2022-11-05T01:23:56.563Z,7.14
2022-11-05T01:25:28.305Z,7.17
2022-11-05T01:27:00.043Z,7.16
2022-11-05T01:28:31.772Z,7.18
2022-11-05T01:30:04.905Z,7.16
2022-11-05T01:31:36.616Z,7.12
2022-11-05T01:33:08.478Z,7.09
2022-11-05T01:34:41.857Z,7.07
2022-11-05T01:36:13.603Z,7.11
2022-11-05T01:37:45.394Z,7.07
2022-11-05T01:39:17.188Z,7.12
2022-11-05T01:40:48.958Z,7.08
2022-11-05T01:42:21.449Z,7.09
2022-11-05T01:43:57.363Z,7.07
2022-11-05T01:45:29.042Z,7.07
2022-11-05T01:47:00.818Z,7.03
2022-11-05T01:48:33.944Z,7.02
2022-11-05T01:50:17.280Z,7.07
2022-11-05T01:51:48.962Z,7.09
2022-11-05T01:53:24.553Z,7.13
2022-11-05T01:54:56.278Z,7.01
2022-11-05T01:56:30.230Z,7.01
2022-11-05T01:58:02.012Z,7.02
2022-11-05T01:59:34.752Z,7.02
2022-11-05T02:01:06.465Z,6.97
2022-11-05T02:02:38.175Z,7.04
2022-11-05T02:04:11.581Z,7.08
2022-11-05T02:05:44.632Z,7.10
2022-11-05T02:07:17.310Z,7.03
2022-11-05T02:08:53.846Z,7.07
2022-11-05T02:10:25.706Z,7.08
2022-11-05T02:11:57.549Z,7.08
2022-11-05T02:13:29.295Z,7.09
2022-11-05T02:15:01.036Z,7.10
2022-11-05T02:16:37.985Z,7.06
2022-11-05T02:18:15.348Z,7.10
2022-11-05T02:20:10.029Z,7.08
2022-11-05T02:22:11.612Z,7.06
2022-11-05T02:24:08.491Z,7.11
2022-11-05T02:26:03.625Z,7.06
2022-11-05T02:27:46.231Z,7.11
2022-11-05T02:29:38.232Z,7.09
2022-11-05T02:31:12.680Z,7.08
2022-11-05T02:33:05.561Z,7.11
2022-11-05T02:34:42.334Z,7.06
2022-11-05T02:36:25.291Z,7.09
2022-11-05T02:37:59.864Z,7.07
2022-11-05T02:39:37.793Z,7.14
2022-11-05T02:41:14.524Z,7.06
2022-11-05T02:42:48.842Z,7.10
2022-11-05T02:44:25.948Z,7.09
2022-11-05T02:46:01.115Z,7.07
2022-11-05T02:47:37.893Z,7.07
2022-11-05T02:49:17.995Z,7.11
2022-11-05T02:50:52.818Z,7.10
2022-11-05T02:52:27.645Z,7.12
2022-11-05T02:54:03.559Z,7.12
2022-11-05T02:55:37.287Z,7.09
2022-11-05T02:57:09.026Z,7.13
2022-11-05T02:58:40.767Z,7.14
2022-11-05T03:00:40.528Z,7.11
2022-11-05T03:02:12.296Z,7.07
2022-11-05T03:03:46.190Z,7.07
2022-11-05T03:05:17.911Z,7.11
2022-11-05T03:07:01.237Z,7.06
2022-11-05T03:08:40.518Z,7.09
2022-11-05T03:10:25.629Z,7.06
2022-11-05T03:12:02.114Z,7.02
2022-11-05T03:13:35.958Z,7.04
2022-11-05T03:15:13.103Z,7.05
2022-11-05T03:16:48.272Z,7.11
2022-11-05T03:18:21.875Z,7.15
2022-11-05T03:19:59.675Z,7.12
2022-11-05T03:21:37.691Z,7.06
2022-11-05T03:23:12.540Z,7.05
2022-11-05T03:24:46.291Z,7.03
2022-11-05T03:26:19.200Z,7.04
2022-11-05T03:27:54.648Z,7.02
2022-11-05T03:29:28.494Z,7.00
2022-11-05T03:31:00.192Z,6.96
2022-11-05T03:32:32.959Z,6.91
2022-11-05T03:34:04.916Z,6.92
2022-11-05T03:35:38.960Z,6.96
2022-11-05T03:37:10.597Z,6.94
2022-11-05T03:38:43.008Z,6.94
2022-11-05T03:40:14.961Z,6.96
2022-11-05T03:41:47.926Z,7.01
2022-11-05T03:43:19.578Z,7.02
2022-11-05T03:44:52.679Z,7.02
2022-11-05T03:46:26.380Z,6.99
2022-11-05T03:47:58.836Z,6.97
2022-11-05T03:49:32.248Z,6.98
2022-11-05T03:51:08.452Z,7.02
2022-11-05T03:52:42.041Z,7.01
2022-11-05T03:54:13.718Z,6.97
2022-11-05T03:55:48.517Z,7.01
2022-11-05T03:57:21.345Z,7.02
2022-11-05T03:58:58.498Z,7.04
2022-11-05T04:00:30.706Z,7.02
2022-11-05T04:02:02.486Z,7.07
2022-11-05T04:03:36.521Z,7.09
2022-11-05T04:05:08.416Z,7.12
2022-11-05T04:07:00.309Z,7.11
2022-11-05T04:08:50.635Z,7.07
2022-11-05T04:10:40.986Z,7.08
2022-11-05T04:12:31.597Z,7.05
2022-11-05T04:14:03.286Z,7.09
2022-11-05T04:15:54.842Z,7.08
2022-11-05T04:17:26.533Z,7.11
2022-11-05T04:18:58.355Z,7.10
2022-11-05T04:20:59.337Z,7.08
2022-11-05T04:22:51.418Z,7.08
2022-11-05T04:24:23.166Z,7.09
2022-11-05T04:25:54.786Z,7.10
2022-11-05T04:27:26.427Z,7.09
2022-11-05T04:29:16.442Z,7.08
2022-11-05T04:30:48.107Z,7.06
2022-11-05T04:32:19.787Z,7.07
2022-11-05T04:33:51.482Z,7.10
2022-11-05T04:35:23.188Z,7.07
2022-11-05T04:36:54.840Z,7.07
2022-11-05T04:38:27.870Z,7.09
2022-11-05T04:39:59.541Z,7.06
2022-11-05T04:41:31.313Z,7.06
2022-11-05T04:43:03.104Z,7.06
2022-11-05T04:44:34.866Z,7.05
2022-11-05T04:46:06.591Z,7.07
2022-11-05T04:47:38.265Z,7.07
2022-11-05T04:49:09.957Z,7.03
2022-11-05T04:50:41.668Z,7.07
2022-11-05T04:52:13.334Z,7.06
2022-11-05T04:53:46.388Z,7.06
2022-11-05T04:55:18.247Z,7.05
2022-11-05T04:56:49.944Z,7.05
2022-11-05T04:58:21.615Z,7.07
2022-11-05T04:59:57.839Z,7.06
2022-11-05T05:01:29.605Z,7.08
2022-11-05T05:03:01.402Z,7.04
2022-11-05T05:04:33.102Z,7.05
2022-11-05T05:06:05.031Z,7.01
2022-11-05T05:07:36.700Z,6.98
2022-11-05T05:09:09.749Z,7.03
2022-11-05T05:10:41.433Z,7.01
2022-11-05T05:12:13.183Z,6.98
2022-11-05T05:13:44.923Z,6.97
2022-11-05T05:15:16.721Z,6.97
2022-11-05T05:16:48.421Z,6.91
2022-11-05T05:18:20.598Z,6.90
2022-11-05T05:20:11.081Z,6.89
2022-11-05T05:21:42.728Z,6.86
2022-11-05T05:23:14.413Z,6.80
2022-11-05T05:24:52.407Z,6.79
2022-11-05T05:26:24.580Z,6.85
2022-11-05T05:27:56.752Z,6.89
2022-11-05T05:29:28.428Z,6.93
2022-11-05T05:31:00.683Z,6.89
2022-11-05T05:32:32.357Z,6.90
2022-11-05T05:34:04.103Z,6.94
2022-11-05T05:35:35.916Z,6.93
2022-11-05T05:37:07.537Z,6.95
2022-11-05T05:38:39.189Z,6.95
2022-11-05T05:40:12.594Z,6.94
2022-11-05T05:41:44.214Z,6.95
2022-11-05T05:43:15.966Z,6.90
2022-11-05T05:44:47.559Z,6.95
2022-11-05T05:46:19.768Z,6.91
2022-11-05T05:47:51.438Z,6.87
2022-11-05T05:49:23.057Z,6.90
2022-11-05T05:50:54.715Z,6.89
2022-11-05T05:52:26.387Z,6.93
2022-11-05T05:53:58.551Z,6.96
2022-11-05T05:55:31.643Z,6.94
2022-11-05T05:57:03.566Z,6.90
2022-11-05T05:58:36.996Z,6.96
2022-11-05T06:00:10.092Z,6.95
2022-11-05T06:01:41.936Z,6.96
2022-11-05T06:03:14.379Z,6.98
2022-11-05T06:04:46.391Z,6.89
2022-11-05T06:06:21.210Z,6.99
2022-11-05T06:07:56.456Z,6.99
2022-11-05T06:09:28.134Z,6.99
2022-11-05T06:11:01.629Z,6.98
2022-11-05T06:12:33.498Z,6.96
2022-11-05T06:14:05.239Z,6.92
2022-11-05T06:15:36.955Z,6.93
2022-11-05T06:17:08.709Z,6.88
2022-11-05T06:18:40.459Z,6.92
2022-11-05T06:20:12.350Z,6.90
2022-11-05T06:21:44.147Z,6.95
2022-11-05T06:23:15.940Z,6.90
2022-11-05T06:24:47.605Z,6.94
2022-11-05T06:26:20.735Z,6.95
2022-11-05T06:27:53.136Z,6.98
2022-11-05T06:29:24.901Z,6.91
2022-11-05T06:30:56.880Z,6.85
2022-11-05T06:32:28.753Z,6.86
2022-11-05T06:34:00.502Z,6.86
2022-11-05T06:35:32.266Z,6.88
2022-11-05T06:37:04.034Z,6.88
2022-11-05T06:38:36.464Z,6.93
2022-11-05T06:40:08.874Z,6.95
2022-11-05T06:42:17.155Z,6.95
2022-11-05T06:43:33.825Z,6.89
2022-11-05T06:45:06.895Z,6.93
2022-11-05T06:46:38.622Z,6.91
2022-11-05T06:48:10.347Z,6.94
2022-11-05T06:49:42.074Z,6.93
2022-11-05T06:51:13.794Z,6.92
2022-11-05T06:52:47.166Z,6.94
2022-11-05T06:54:18.884Z,6.88
2022-11-05T06:55:50.648Z,6.89
2022-11-05T06:57:23.728Z,6.89
2022-11-05T06:58:55.518Z,6.85
2022-11-05T07:00:27.237Z,6.88
2022-11-05T07:01:58.938Z,6.86
2022-11-05T07:03:30.851Z,6.88
2022-11-05T07:05:02.629Z,6.94
2022-11-05T07:06:36.953Z,6.90
2022-11-05T07:08:09.150Z,6.95
2022-11-05T07:09:43.189Z,6.93
2022-11-05T07:11:14.999Z,6.94
2022-11-05T07:12:48.165Z,6.90
2022-11-05T07:14:19.983Z,6.85
2022-11-05T07:15:51.774Z,6.89
2022-11-05T07:17:23.503Z,6.83
2022-11-05T07:18:55.982Z,6.87
2022-11-05T07:20:33.282Z,6.83
2022-11-05T07:22:05.752Z,6.87
2022-11-05T07:23:37.463Z,6.84
2022-11-05T07:25:09.541Z,6.82
2022-11-05T07:26:41.675Z,6.83
2022-11-05T07:28:14.826Z,6.88
2022-11-05T07:29:46.540Z,6.86
2022-11-05T07:31:18.224Z,6.90
2022-11-05T07:32:49.936Z,6.88
2022-11-05T07:34:21.628Z,6.93
2022-11-05T07:35:55.984Z,6.97
2022-11-05T07:37:27.659Z,6.93
2022-11-05T07:39:00.643Z,6.92
2022-11-05T07:40:32.511Z,6.89
2022-11-05T07:42:04.357Z,6.92
2022-11-05T07:43:37.477Z,6.95
2022-11-05T07:45:10.280Z,6.92
2022-11-05T07:46:42.066Z,6.96
2022-11-05T07:48:13.749Z,6.95
2022-11-05T07:49:53.231Z,6.84
2022-11-05T07:51:24.980Z,6.92
2022-11-05T07:53:00.108Z,6.86
2022-11-05T07:54:31.988Z,6.85
2022-11-05T07:56:03.982Z,6.95
2022-11-05T07:57:40.829Z,7.00
2022-11-05T07:59:16.714Z,6.97
2022-11-05T08:00:48.672Z,7.01
2022-11-05T08:02:20.726Z,7.02
2022-11-05T08:03:52.534Z,7.05
2022-11-05T08:05:24.233Z,7.10
2022-11-05T08:06:55.998Z,7.18
2022-11-05T08:08:27.697Z,7.15
2022-11-05T08:09:59.337Z,7.19
2022-11-05T08:11:31.494Z,7.26
2022-11-05T08:13:03.253Z,7.19
2022-11-05T08:14:36.568Z,7.22
2022-11-05T08:16:09.067Z,7.17
2022-11-05T08:17:41.755Z,7.25
2022-11-05T08:19:16.026Z,7.16
2022-11-05T08:20:50.490Z,7.23
2022-11-05T08:22:23.090Z,7.21
2022-11-05T08:23:54.875Z,7.24
2022-11-05T08:25:26.529Z,7.19
2022-11-05T08:26:58.172Z,7.15
2022-11-05T08:28:29.794Z,7.10
2022-11-05T08:30:03.125Z,7.17
2022-11-05T08:31:37.036Z,7.23
2022-11-05T08:33:09.964Z,7.24
2022-11-05T08:34:41.962Z,7.14
2022-11-05T08:36:13.758Z,7.13
2022-11-05T08:37:48.557Z,7.18
2022-11-05T08:39:20.265Z,7.20
2022-11-05T08:40:55.779Z,7.19
2022-11-05T08:42:27.456Z,7.25
2022-11-05T08:43:59.106Z,7.31
2022-11-05T08:45:32.137Z,7.28
2022-11-05T08:47:03.762Z,7.32
2022-11-05T08:48:35.379Z,7.27
2022-11-05T08:50:07.753Z,7.31
2022-11-05T08:51:39.421Z,7.37
2022-11-05T08:53:11.494Z,7.41
2022-11-05T08:54:43.726Z,7.37
2022-11-05T08:57:03.555Z,7.41
2022-11-05T08:58:37.660Z,7.39
2022-11-05T09:01:50.595Z,7.48
2022-11-05T09:03:22.495Z,7.48
2022-11-05T09:04:54.085Z,7.53
2022-11-05T09:06:25.761Z,7.62
2022-11-05T09:08:01.008Z,7.71
2022-11-05T09:09:33.380Z,7.84
2022-11-05T09:11:07.763Z,7.95
2022-11-05T09:12:39.413Z,7.98
2022-11-05T09:14:11.109Z,8.00
2022-11-05T09:15:42.728Z,8.07
2022-11-05T09:17:17.504Z,7.99
2022-11-05T09:18:50.236Z,7.96
2022-11-05T09:20:22.131Z,7.91
2022-11-05T09:21:53.996Z,7.94
2022-11-05T09:23:25.621Z,7.91
2022-11-05T09:24:57.227Z,7.91
2022-11-05T09:26:29.073Z,7.96
2022-11-05T09:28:08.381Z,7.98
2022-11-05T09:29:39.995Z,7.97
2022-11-05T09:31:11.776Z,8.06
2022-11-05T09:32:44.806Z,8.05
2022-11-05T09:34:16.461Z,8.04
2022-11-05T09:35:48.080Z,7.99
2022-11-05T09:37:19.706Z,7.99
2022-11-05T09:38:51.419Z,7.97
2022-11-05T09:40:23.141Z,8.03
2022-11-05T09:41:55.768Z,7.96
2022-11-05T09:43:31.883Z,7.99
2022-11-05T09:45:04.519Z,8.08
2022-11-05T09:46:39.030Z,8.12
2022-11-05T09:48:14.737Z,8.09
2022-11-05T09:49:48.568Z,8.08
2022-11-05T09:51:23.906Z,8.04
2022-11-05T09:52:56.057Z,8.12
2022-11-05T09:54:31.602Z,8.12
2022-11-05T09:56:03.383Z,8.06
2022-11-05T09:57:37.191Z,8.07
2022-11-05T09:59:14.554Z,8.13
2022-11-05T10:00:48.654Z,8.03
2022-11-05T10:02:21.802Z,8.00
2022-11-05T10:03:57.165Z,7.96
2022-11-05T10:05:28.909Z,8.00
2022-11-05T10:07:02.614Z,7.98
2022-11-05T10:09:16.920Z,7.98
2022-11-05T10:11:10.523Z,7.95
2022-11-05T10:13:06.398Z,7.93
2022-11-05T10:15:31.033Z,7.98
2022-11-05T10:17:05.362Z,7.90
2022-11-05T10:23:44.327Z,7.91
2022-11-05T10:26:05.934Z,7.83
2022-11-05T10:28:54.445Z,7.87
2022-11-05T10:30:26.141Z,7.87
2022-11-05T10:32:08.929Z,7.88
2022-11-05T10:33:42.536Z,7.91
2022-11-05T10:35:22.489Z,7.95
2022-11-05T10:37:13.187Z,7.94
2022-11-05T10:38:45.429Z,7.91
2022-11-05T10:43:34.448Z,7.97
2022-11-05T10:45:11.879Z,8.12
2022-11-05T10:46:51.133Z,8.21
2022-11-05T10:48:29.996Z,8.27
2022-11-05T10:50:02.509Z,8.22
2022-11-05T10:51:34.594Z,8.14
2022-11-05T10:53:12.950Z,8.14
2022-11-05T10:54:44.743Z,8.12
2022-11-05T10:56:33.391Z,8.06
2022-11-05T10:58:09.794Z,8.12
2022-11-05T10:59:41.521Z,8.08
2022-11-05T11:01:13.329Z,8.07
2022-11-05T11:02:46.667Z,8.04
2022-11-05T11:04:22.230Z,8.07
2022-11-05T11:05:58.064Z,8.12
2022-11-05T11:07:30.351Z,8.11
2022-11-05T11:09:05.827Z,8.15
2022-11-05T11:10:41.054Z,8.18
2022-11-05T11:12:15.136Z,8.21
2022-11-05T11:13:50.060Z,8.26
2022-11-05T11:15:24.434Z,8.29
2022-11-05T11:16:57.666Z,8.33
2022-11-05T11:18:32.438Z,8.37
2022-11-05T11:20:20.711Z,8.45
2022-11-05T11:22:21.180Z,8.45
2022-11-05T11:23:54.477Z,8.43
2022-11-05T11:25:28.804Z,8.49
2022-11-05T11:27:01.446Z,8.48
2022-11-05T11:28:34.934Z,8.48
2022-11-05T11:30:07.593Z,8.44
2022-11-05T11:31:39.507Z,8.46
2022-11-05T11:33:11.410Z,8.54
2022-11-05T11:34:43.393Z,8.55
2022-11-05T11:36:16.722Z,8.54
2022-11-05T11:37:48.388Z,8.58
2022-11-05T11:39:21.729Z,8.61
2022-11-05T11:41:01.983Z,8.55
2022-11-05T11:42:34.668Z,8.60
2022-11-05T11:44:08.570Z,8.71
2022-11-05T11:45:44.957Z,8.72
2022-11-05T11:47:18.323Z,8.68
2022-11-05T11:48:49.968Z,8.74
2022-11-05T11:50:36.345Z,8.67
2022-11-05T11:52:10.704Z,8.61
2022-11-05T11:53:42.342Z,8.56
2022-11-05T11:55:19.678Z,8.58
2022-11-05T11:56:52.675Z,8.65
2022-11-05T11:58:34.858Z,8.65
2022-11-05T12:00:09.832Z,8.68
2022-11-05T12:02:06.049Z,8.72
2022-11-05T12:03:39.858Z,8.73
2022-11-05T12:05:19.851Z,8.72
2022-11-05T12:06:56.747Z,8.85
2022-11-05T12:08:45.325Z,8.83
2022-11-05T12:10:23.519Z,8.82
2022-11-05T12:12:00.322Z,8.79
2022-11-05T12:14:03.878Z,8.81
2022-11-05T12:15:40.950Z,8.84
2022-11-05T12:17:19.674Z,8.72
2022-11-05T12:18:54.701Z,8.73
2022-11-05T12:20:38.744Z,8.70
2022-11-05T12:22:15.066Z,8.67
2022-11-05T12:24:25.731Z,8.73
2022-11-05T12:25:58.858Z,8.67
2022-11-05T12:27:51.410Z,8.65
2022-11-05T12:29:36.263Z,8.66
2022-11-05T12:31:13.625Z,8.67
2022-11-05T12:32:57.549Z,8.63
2022-11-05T12:34:37.950Z,8.63
2022-11-05T12:36:15.549Z,8.60
2022-11-05T12:37:51.165Z,8.60
2022-11-05T12:39:30.660Z,8.57
2022-11-05T12:41:09.548Z,8.57
2022-11-05T12:42:55.467Z,8.61
2022-11-05T12:44:59.579Z,8.58
2022-11-05T12:46:34.889Z,8.59
2022-11-05T12:48:14.531Z,8.58
2022-11-05T12:49:53.453Z,8.58
2022-11-05T12:51:35.388Z,8.54
2022-11-05T12:53:22.795Z,8.47
2022-11-05T12:55:01.901Z,7.95
2022-11-05T12:56:38.784Z,7.85
2022-11-05T12:58:13.503Z,7.80
2022-11-05T12:59:47.745Z,7.80
2022-11-05T13:01:23.230Z,7.85
2022-11-05T13:02:56.504Z,7.93
2022-11-05T13:04:34.244Z,7.88
2022-11-05T13:06:07.306Z,7.89
2022-11-05T13:07:39.757Z,7.91
2022-11-05T13:09:13.391Z,7.92
2022-11-05T13:10:57.052Z,7.90
2022-11-05T13:12:30.270Z,7.88
2022-11-05T13:14:06.227Z,7.88
2022-11-05T13:15:41.999Z,8.04
2022-11-05T13:17:15.021Z,7.97
2022-11-05T13:18:48.187Z,7.93
2022-11-05T13:20:20.971Z,7.80
2022-11-05T13:21:53.994Z,7.82
2022-11-05T13:23:29.666Z,7.94
2022-11-05T13:25:04.744Z,7.89
2022-11-05T13:26:38.725Z,7.98
2022-11-05T13:28:14.656Z,7.97
2022-11-05T13:29:48.671Z,8.04
2022-11-05T13:31:21.927Z,8.15
2022-11-05T13:32:56.253Z,8.14
2022-11-05T13:34:28.092Z,8.17
2022-11-05T13:36:22.215Z,8.14
2022-11-05T13:38:15.076Z,8.12
2022-11-05T13:39:48.243Z,8.19
2022-11-05T13:41:25.076Z,8.18
2022-11-05T13:43:21.981Z,8.16
2022-11-05T13:45:22.820Z,8.17
2022-11-05T13:47:11.795Z,8.25
2022-11-05T13:49:12.690Z,8.67
2022-11-05T13:50:58.379Z,8.62
2022-11-05T13:52:42.533Z,8.56
2022-11-05T13:54:33.226Z,8.54
2022-11-05T13:56:09.926Z,8.56
2022-11-05T13:58:01.095Z,8.62
2022-11-05T13:59:55.355Z,8.59
2022-11-05T14:01:41.862Z,8.62
2022-11-05T14:03:16.364Z,8.70
2022-11-05T14:04:49.176Z,8.75
2022-11-05T14:06:23.616Z,8.62
2022-11-05T14:07:55.400Z,8.52
2022-11-05T14:09:27.465Z,8.53
2022-11-05T14:11:00.687Z,8.53
2022-11-05T14:12:33.066Z,8.57
2022-11-05T14:14:06.747Z,8.60
2022-11-05T14:15:38.497Z,8.60
2022-11-05T14:17:27.313Z,8.57
2022-11-05T14:19:28.370Z,8.49
2022-11-05T14:21:01.580Z,8.51
2022-11-05T14:22:40.780Z,8.50
2022-11-05T14:24:25.912Z,8.48
2022-11-05T14:25:57.937Z,8.50
2022-11-05T14:27:43.652Z,8.46
2022-11-05T14:29:22.506Z,8.41
2022-11-05T14:30:54.245Z,8.44
2022-11-05T14:32:28.346Z,8.46
2022-11-05T14:34:02.427Z,8.45
2022-11-05T14:35:36.298Z,8.47
2022-11-05T14:37:30.265Z,8.52
2022-11-05T14:39:21.210Z,8.45
2022-11-05T14:40:58.505Z,8.45
2022-11-05T14:42:30.398Z,8.40
2022-11-05T14:44:05.813Z,8.37
2022-11-05T14:45:38.170Z,8.41
2022-11-05T14:47:19.985Z,8.30
2022-11-05T14:48:54.256Z,8.28
2022-11-05T14:50:30.738Z,8.27
2022-11-05T14:52:06.647Z,8.27
2022-11-05T14:53:38.991Z,8.27
2022-11-05T14:55:25.802Z,8.26
2022-11-05T14:56:58.424Z,8.17
2022-11-05T14:58:35.506Z,8.24
2022-11-05T15:00:41.596Z,8.39
2022-11-05T15:02:14.800Z,8.36
2022-11-05T15:04:16.048Z,8.30
2022-11-05T15:05:50.247Z,8.29
2022-11-05T15:07:35.765Z,8.34
2022-11-05T15:09:17.452Z,8.23
2022-11-05T15:10:49.091Z,8.26
2022-11-05T15:12:24.190Z,8.25
2022-11-05T15:14:00.974Z,8.20
2022-11-05T15:15:40.370Z,8.23
2022-11-05T15:17:16.424Z,8.26
2022-11-05T15:18:48.072Z,8.25
2022-11-05T15:20:22.187Z,8.23
2022-11-05T15:22:01.246Z,8.20
2022-11-05T15:23:38.220Z,8.19
2022-11-05T15:25:18.410Z,8.17
2022-11-05T15:26:54.147Z,8.17
2022-11-05T15:28:28.997Z,8.24
2022-11-05T15:30:05.305Z,8.20
2022-11-05T15:31:37.556Z,8.09
2022-11-05T15:33:10.825Z,8.05
2022-11-05T15:34:55.477Z,8.09
2022-11-05T15:36:29.942Z,8.23
2022-11-05T15:38:02.688Z,8.24
2022-11-05T15:39:42.255Z,8.18
2022-11-05T15:41:15.568Z,8.24
2022-11-05T15:42:47.433Z,8.29
2022-11-05T15:44:24.571Z,8.22
2022-11-05T15:46:04.696Z,8.27
2022-11-05T15:47:36.509Z,8.17
2022-11-05T15:49:09.123Z,8.17
2022-11-05T15:50:41.049Z,8.19
2022-11-05T15:52:15.289Z,7.98
2022-11-05T15:55:51.807Z,7.94
2022-11-05T15:57:26.253Z,7.88
2022-11-05T15:59:00.141Z,7.91
2022-11-05T16:00:32.696Z,8.12
2022-11-05T16:02:16.815Z,8.09
2022-11-05T16:03:48.683Z,8.01
2022-11-05T16:05:20.361Z,8.08
2022-11-05T16:06:53.889Z,8.09
2022-11-05T16:08:29.161Z,8.01
2022-11-05T16:10:01.439Z,7.98
2022-11-05T16:11:33.295Z,7.95
2022-11-05T16:13:28.767Z,7.92
2022-11-05T16:15:17.829Z,8.01
2022-11-05T16:16:49.553Z,7.98
2022-11-05T16:18:21.858Z,7.93
2022-11-05T16:19:53.624Z,8.16
2022-11-05T16:21:25.329Z,8.02
2022-11-05T16:22:57.774Z,7.93
2022-11-05T16:24:30.953Z,7.93
2022-11-05T16:26:02.601Z,8.02
2022-11-05T16:27:34.216Z,7.91
2022-11-05T16:29:11.140Z,7.60
2022-11-05T16:30:52.138Z,7.54
2022-11-05T16:32:29.861Z,7.61
2022-11-05T16:34:02.640Z,7.71
2022-11-05T16:35:34.269Z,7.69
2022-11-05T16:37:06.723Z,7.53
2022-11-05T16:38:38.531Z,7.54
2022-11-05T16:40:14.868Z,7.49
2022-11-05T16:41:48.400Z,7.32
2022-11-05T16:43:21.406Z,7.35
2022-11-05T16:44:54.947Z,7.18
2022-11-05T16:46:28.732Z,7.49
2022-11-05T16:48:00.610Z,7.37
2022-11-05T16:49:32.237Z,7.45
2022-11-05T16:51:04.046Z,7.33
2022-11-05T16:52:35.673Z,7.44
2022-11-05T16:54:07.315Z,7.48
2022-11-05T16:55:41.259Z,7.42
2022-11-05T16:57:18.719Z,7.51
2022-11-05T16:58:50.454Z,7.39
2022-11-05T17:00:22.429Z,7.37
2022-11-05T17:01:55.944Z,7.25
2022-11-05T17:03:30.616Z,7.32
2022-11-05T17:05:02.244Z,7.32
2022-11-05T17:06:33.878Z,7.26
2022-11-05T17:08:05.748Z,7.35
2022-11-05T17:09:37.407Z,7.19
2022-11-05T17:11:13.729Z,7.23
2022-11-05T17:12:48.196Z,7.34
2022-11-05T17:14:22.446Z,7.35
2022-11-05T17:15:56.726Z,7.32
2022-11-05T17:17:29.140Z,7.22
2022-11-05T17:19:00.761Z,6.89
2022-11-05T17:20:40.734Z,6.78
2022-11-05T17:22:12.789Z,6.89
2022-11-05T17:23:44.435Z,6.82
2022-11-05T17:25:16.063Z,6.76
2022-11-05T17:26:51.330Z,6.90
2022-11-05T17:28:23.084Z,6.75
2022-11-05T17:29:54.849Z,6.86
2022-11-05T17:31:27.266Z,6.68
2022-11-05T17:32:59.200Z,6.71
2022-11-05T17:34:30.984Z,7.00
2022-11-05T17:36:05.564Z,6.75
2022-11-05T17:37:37.223Z,6.32
2022-11-05T17:39:08.896Z,6.61
2022-11-05T17:40:40.582Z,6.64
2022-11-05T17:42:13.579Z,6.59
2022-11-05T17:43:48.324Z,6.31
2022-11-05T17:45:28.910Z,6.63
2022-11-05T17:47:00.503Z,6.76
2022-11-05T17:50:25.176Z,6.66
2022-11-05T17:51:56.818Z,6.80
2022-11-05T17:53:28.759Z,6.62
2022-11-05T17:55:00.441Z,6.61
2022-11-05T17:56:34.961Z,6.52
2022-11-05T17:58:09.443Z,6.62
2022-11-05T17:59:42.060Z,6.51
2022-11-05T18:01:25.160Z,6.31
2022-11-05T18:02:56.956Z,6.07
2022-11-05T18:04:29.968Z,6.20
2022-11-05T18:06:02.256Z,6.24
2022-11-05T18:07:37.119Z,6.12
2022-11-05T18:09:12.042Z,6.17
2022-11-05T18:10:45.769Z,5.87
2022-11-05T18:12:17.404Z,6.35
2022-11-05T18:13:53.524Z,5.93
2022-11-05T18:15:27.018Z,5.81
2022-11-05T18:17:00.283Z,5.92
2022-11-05T18:18:31.972Z,6.18
2022-11-05T18:20:04.215Z,6.22
2022-11-05T18:21:35.911Z,6.16
2022-11-05T18:23:07.543Z,6.13
2022-11-05T18:24:39.158Z,6.18
2022-11-05T18:26:11.100Z,6.03
2022-11-05T18:27:42.805Z,6.22
2022-11-05T18:29:15.886Z,6.31
2022-11-05T18:30:47.683Z,5.86
2022-11-05T18:32:19.354Z,5.75
2022-11-05T18:33:51.266Z,5.85
2022-11-05T18:35:22.888Z,5.73
2022-11-05T18:36:56.516Z,5.81
2022-11-05T18:38:28.433Z,5.97
2022-11-05T18:40:00.061Z,6.17
2022-11-05T18:41:31.695Z,5.83
2022-11-05T18:43:03.344Z,5.66
2022-11-05T18:44:39.243Z,5.54
2022-11-05T18:46:29.187Z,5.79
2022-11-05T18:48:03.643Z,5.50
2022-11-05T18:49:36.256Z,5.85
2022-11-05T18:51:08.825Z,6.04
2022-11-05T18:52:40.450Z,5.93
2022-11-05T18:54:12.055Z,5.81
2022-11-05T18:55:43.691Z,5.89
2022-11-05T18:57:15.407Z,5.99
2022-11-05T18:58:47.251Z,6.06
2022-11-05T19:00:20.610Z,5.98
2022-11-05T19:01:52.987Z,6.01
2022-11-05T19:03:24.733Z,6.04
2022-11-05T19:05:22.542Z,6.05
2022-11-05T19:06:48.212Z,5.87
2022-11-05T19:08:19.939Z,5.95
2022-11-05T19:09:51.623Z,6.03
2022-11-05T19:11:24.501Z,5.95
2022-11-05T19:12:56.380Z,6.07
2022-11-05T19:14:28.080Z,6.03
2022-11-05T19:16:01.164Z,6.00
2022-11-05T19:17:33.206Z,5.82
2022-11-05T19:19:05.070Z,5.67
2022-11-05T19:20:37.916Z,5.70
2022-11-05T19:22:10.293Z,5.98
2022-11-05T19:23:42.087Z,5.77
2022-11-05T19:25:13.721Z,5.97
2022-11-05T19:26:53.748Z,5.74
2022-11-05T19:28:25.645Z,5.80
2022-11-05T19:29:57.297Z,5.80
2022-11-05T19:31:34.567Z,5.70
2022-11-05T19:33:06.209Z,5.35
2022-11-05T19:34:37.900Z,5.69
2022-11-05T19:36:10.193Z,5.49
2022-11-05T19:37:41.920Z,5.57
2022-11-05T19:39:14.104Z,5.55
2022-11-05T19:40:45.833Z,5.69
2022-11-05T19:42:17.640Z,5.68
2022-11-05T19:43:49.383Z,5.47
2022-11-05T19:45:43.718Z,5.21
2022-11-05T19:47:14.103Z,5.01
2022-11-05T19:48:45.859Z,4.90
2022-11-05T19:50:17.734Z,4.71
2022-11-05T19:51:49.428Z,4.90
2022-11-05T19:53:21.144Z,4.97
2022-11-05T19:54:52.753Z,4.94
2022-11-05T19:56:25.764Z,5.12
2022-11-05T19:57:57.426Z,4.96
2022-11-05T19:59:31.495Z,5.04
2022-11-05T20:01:03.346Z,5.06
2022-11-05T20:02:36.581Z,5.24
2022-11-05T20:04:12.049Z,5.26
2022-11-05T20:05:43.898Z,5.31
2022-11-05T20:07:15.568Z,5.32
2022-11-05T20:09:15.233Z,5.35
2022-11-05T20:10:41.680Z,5.12
2022-11-05T20:12:13.338Z,5.28
2022-11-05T20:13:45.066Z,5.28
2022-11-05T20:15:22.063Z,5.30
2022-11-05T20:16:59.304Z,5.45
2022-11-05T20:18:32.587Z,5.43
2022-11-05T20:20:05.259Z,5.38
2022-11-05T20:21:37.067Z,5.41
2022-11-05T20:23:08.863Z,5.19
2022-11-05T20:24:40.633Z,5.15
2022-11-05T20:26:12.314Z,5.08
2022-11-05T20:27:44.067Z,4.99
2022-11-05T20:29:15.695Z,5.21
2022-11-05T20:30:47.323Z,5.08
2022-11-05T20:32:19.018Z,5.15
2022-11-05T20:33:52.356Z,4.99
2022-11-05T20:35:24.053Z,5.07
2022-11-05T20:36:55.771Z,5.03
2022-11-05T20:38:27.366Z,5.08
2022-11-05T20:39:58.943Z,4.90
2022-11-05T20:41:31.498Z,5.01
2022-11-05T20:43:03.094Z,4.90
2022-11-05T20:44:34.781Z,4.92
2022-11-05T20:46:06.763Z,4.88
2022-11-05T20:47:38.371Z,5.04
2022-11-05T20:49:11.450Z,4.67
2022-11-05T20:50:43.481Z,4.43
2022-11-05T20:52:17.151Z,4.61
2022-11-05T20:53:49.222Z,4.85
2022-11-05T20:55:20.914Z,4.83
2022-11-05T20:56:52.579Z,4.80
2022-11-05T20:58:24.281Z,4.51
2022-11-05T20:59:55.922Z,4.71
2022-11-05T21:01:28.504Z,4.92
2022-11-05T21:03:00.386Z,4.49
2022-11-05T21:04:33.407Z,4.68
2022-11-05T21:06:06.425Z,4.73
2022-11-05T21:07:38.099Z,4.84
2022-11-05T21:09:09.784Z,4.74
2022-11-05T21:10:41.462Z,4.59
2022-11-05T21:12:13.174Z,4.70
2022-11-05T21:13:44.855Z,4.80
2022-11-05T21:15:20.269Z,4.73
2022-11-05T21:16:51.921Z,4.72
2022-11-05T21:18:24.378Z,4.83
2022-11-05T21:19:57.309Z,4.79
2022-11-05T21:21:31.571Z,4.63
2022-11-05T21:23:03.182Z,4.53
2022-11-05T21:24:35.724Z,4.37
2022-11-05T21:26:08.589Z,4.42